Time;durP1;ratioP1;P1;durP2;ratioP2;P2;SDS_P1;SDS_P2;PMS_P1;PMS_P2;Temp;Humidity;BMP_temperature;BMP_pressure;BME280_temperature;BME280_humidity;BME280_pressure;Samples;Min_cycle;Max_cycle;Signal;HPM_P1;HPM_P2
2023/01/06 00:01:27;;;;;;;13.82;4.43;;;11.80;98.50;;;;;;5043034;28;20422;-78
2023/01/06 00:03:57;;;;;;;11.20;5.28;;;11.80;98.50;;;;;;5049178;28;20103;-78
2023/01/06 00:06:26;;;;;;;12.43;3.78;;;11.80;98.50;;;;;;5040643;28;20053;-78
2023/01/06 00:08:54;;;;;;;12.38;6.15;;;11.80;98.60;;;;;;5050731;28;20028;-79
2023/01/06 00:11:20;;;;;;;15.32;3.90;;;11.90;98.60;;;;;;5021830;28;20224;-78
2023/01/06 00:13:46;;;;;;;10.18;4.18;;;11.80;98.20;;;;;;5043822;28;20029;-79
2023/01/06 00:16:14;;;;;;;14.75;5.70;;;11.90;98.30;;;;;;5035630;28;20046;-79
2023/01/06 00:18:40;;;;;;;22.40;5.53;;;11.90;98.40;;;;;;5053111;28;20077;-79
2023/01/06 00:21:07;;;;;;;10.95;5.80;;;11.80;98.40;;;;;;5032946;28;20021;-79
2023/01/06 00:23:34;;;;;;;12.55;5.38;;;11.80;98.50;;;;;;5046561;28;20490;-79
2023/01/06 00:26:00;;;;;;;9.55;5.00;;;11.80;98.50;;;;;;5058878;28;20052;-79
2023/01/06 00:28:26;;;;;;;11.55;4.75;;;11.80;98.40;;;;;;5045314;28;20027;-79
2023/01/06 00:30:52;;;;;;;10.60;4.95;;;11.80;98.40;;;;;;5061070;28;20025;-79
2023/01/06 00:33:17;;;;;;;15.43;6.30;;;11.80;98.30;;;;;;5049093;28;20373;-79
2023/01/06 00:35:43;;;;;;;12.00;6.50;;;11.80;98.50;;;;;;5024639;28;20524;-80
2023/01/06 00:38:10;;;;;;;14.55;6.22;;;11.80;98.30;;;;;;5042504;28;20016;-79
2023/01/06 00:40:36;;;;;;;14.32;5.32;;;11.80;98.30;;;;;;5050299;28;20025;-78
2023/01/06 00:43:02;;;;;;;9.02;5.60;;;11.80;98.20;;;;;;5043737;28;20021;-78
2023/01/06 00:45:28;;;;;;;11.00;5.03;;;11.80;98.10;;;;;;5038694;28;20025;-78
2023/01/06 00:47:53;;;;;;;11.43;5.65;;;11.80;98.10;;;;;;5042686;28;20030;-78
2023/01/06 00:50:19;;;;;;;14.13;5.05;;;11.90;98.20;;;;;;5051957;28;20610;-79
2023/01/06 00:52:47;;;;;;;7.18;4.25;;;11.90;98.10;;;;;;5043779;28;20026;-79
2023/01/06 00:55:13;;;;;;;15.52;4.65;;;11.80;97.90;;;;;;5044721;28;20039;-78
2023/01/06 00:57:39;;;;;;;11.00;5.10;;;11.80;97.90;;;;;;5054946;28;20495;-79
2023/01/06 01:00:07;;;;;;;10.95;4.93;;;11.80;97.80;;;;;;5054471;28;20438;-78
2023/01/06 01:02:32;;;;;;;10.80;5.10;;;11.80;97.90;;;;;;5052682;28;20040;-78
2023/01/06 01:04:58;;;;;;;10.27;4.28;;;11.80;97.80;;;;;;5034194;28;20028;-79
2023/01/06 01:07:24;;;;;;;9.93;4.70;;;11.80;97.90;;;;;;5059128;28;20024;-79
2023/01/06 01:09:49;;;;;;;11.48;4.88;;;11.80;97.90;;;;;;5051198;28;20020;-78
2023/01/06 01:12:17;;;;;;;10.50;5.53;;;11.90;97.60;;;;;;5047998;28;20045;-78
2023/01/06 01:14:48;;;;;;;12.90;4.68;;;11.80;98.00;;;;;;5037185;28;20029;-78
2023/01/06 01:17:18;;;;;;;7.50;4.82;;;11.80;97.70;;;;;;5043744;28;20146;-80
2023/01/06 01:19:43;;;;;;;10.98;5.80;;;11.70;98.00;;;;;;5044247;28;20789;-79
2023/01/06 01:22:09;;;;;;;9.15;5.32;;;11.80;98.10;;;;;;5031853;28;20032;-79
2023/01/06 01:24:35;;;;;;;11.77;5.70;;;11.80;98.30;;;;;;5018612;28;20391;-79
2023/01/06 01:27:01;;;;;;;6.95;4.50;;;11.80;98.00;;;;;;5057832;28;20475;-78
2023/01/06 01:29:28;;;;;;;13.38;5.15;;;11.80;97.90;;;;;;5036483;28;20570;-78
2023/01/06 01:31:54;;;;;;;7.35;4.43;;;11.90;97.90;;;;;;5015751;28;20117;-78
2023/01/06 01:34:20;;;;;;;14.95;5.78;;;11.80;97.80;;;;;;5013194;28;20128;-79
2023/01/06 01:36:48;;;;;;;9.77;3.95;;;11.80;97.90;;;;;;5043376;28;20171;-79
2023/01/06 01:39:15;;;;;;;9.63;4.65;;;11.80;97.90;;;;;;5050505;28;20032;-78
2023/01/06 01:41:41;;;;;;;10.23;4.72;;;11.80;97.70;;;;;;5026510;28;20570;-79
2023/01/06 01:44:44;;;;;;;10.77;5.20;;;11.80;97.80;;;;;;5058427;28;20105;-79
2023/01/06 01:47:13;;;;;;;12.15;4.43;;;11.80;97.70;;;;;;5061821;28;20063;-77
2023/01/06 01:49:42;;;;;;;6.30;3.58;;;11.80;97.80;;;;;;5055731;28;20054;-79
2023/01/06 01:52:17;;;;;;;11.57;4.25;;;11.80;97.70;;;;;;5048038;28;20079;-78
2023/01/06 01:54:51;;;;;;;12.38;3.97;;;11.80;97.60;;;;;;5039212;28;20037;-80
2023/01/06 01:57:26;;;;;;;8.63;4.18;;;11.90;97.60;;;;;;5042854;28;20248;-80
2023/01/06 01:59:52;;;;;;;8.32;4.38;;;11.90;97.50;;;;;;5033424;28;20026;-78
2023/01/06 02:02:22;;;;;;;7.97;3.97;;;11.80;97.50;;;;;;5046040;28;20498;-79
2023/01/06 02:04:52;;;;;;;10.57;3.75;;;11.80;97.40;;;;;;5015195;28;20082;-79
2023/01/06 02:07:18;;;;;;;8.07;3.85;;;11.80;97.20;;;;;;5052534;28;20650;-79
2023/01/06 02:10:04;;;;;;;14.73;4.55;;;11.80;97.20;;;;;;5054494;28;20029;-79
2023/01/06 02:12:30;;;;;;;10.63;3.40;;;11.80;97.20;;;;;;5054281;28;20131;-78
2023/01/06 02:14:55;;;;;;;9.27;3.35;;;11.80;97.00;;;;;;5049845;28;20092;-77
2023/01/06 02:17:50;;;;;;;6.45;3.03;;;11.80;97.00;;;;;;5047080;28;20041;-79
2023/01/06 02:20:45;;;;;;;8.52;3.30;;;11.80;96.90;;;;;;5043360;28;20040;-80
2023/01/06 02:23:35;;;;;;;8.57;3.15;;;11.80;96.90;;;;;;5052202;28;20434;-78
2023/01/06 02:26:42;;;;;;;18.90;5.95;;;11.80;96.80;;;;;;5041293;28;20132;-79
2023/01/06 02:29:35;;;;;;;6.07;2.70;;;11.80;97.20;;;;;;5053929;28;20033;-77
2023/01/06 02:32:22;;;;;;;9.50;3.05;;;11.70;96.90;;;;;;5035217;28;20080;-79
2023/01/06 02:35:09;;;;;;;14.30;4.70;;;11.80;97.00;;;;;;5050173;28;20086;-79
2023/01/06 02:38:02;;;;;;;7.60;2.90;;;11.80;96.90;;;;;;5051765;28;20124;-80
2023/01/06 02:40:46;;;;;;;12.82;3.40;;;11.80;96.90;;;;;;5034389;28;20013;-78
2023/01/06 02:43:31;;;;;;;11.15;2.92;;;11.70;97.00;;;;;;5027343;28;20029;-79
2023/01/06 02:46:06;;;;;;;7.15;2.15;;;11.70;97.10;;;;;;5039256;28;20032;-80
2023/01/06 02:48:53;;;;;;;5.68;2.50;;;11.70;97.10;;;;;;5045593;28;20066;-78
2023/01/06 02:51:33;;;;;;;10.45;2.67;;;11.70;97.20;;;;;;5028884;28;20030;-78
2023/01/06 02:54:04;;;;;;;7.10;2.33;;;11.70;97.30;;;;;;5056722;28;20031;-78
2023/01/06 02:56:35;;;;;;;8.40;2.38;;;11.70;97.20;;;;;;5041564;28;20072;-79
2023/01/06 02:59:09;;;;;;;6.47;2.33;;;11.60;97.30;;;;;;5055484;28;20087;-77
2023/01/06 03:01:40;;;;;;;9.95;3.33;;;11.70;97.30;;;;;;5045727;28;20447;-78
2023/01/06 03:04:11;;;;;;;9.93;2.85;;;11.60;97.40;;;;;;5051741;28;20102;-78
2023/01/06 03:06:43;;;;;;;12.02;4.72;;;11.60;97.40;;;;;;5032113;28;20048;-77
2023/01/06 03:09:11;;;;;;;9.07;3.05;;;11.70;97.20;;;;;;5031907;28;20028;-78
2023/01/06 03:11:38;;;;;;;5.60;2.22;;;11.80;97.20;;;;;;5030144;28;20032;-79
2023/01/06 03:14:11;;;;;;;8.38;2.60;;;11.70;97.00;;;;;;5030902;28;20828;-78
2023/01/06 03:16:37;;;;;;;6.65;2.58;;;11.80;97.00;;;;;;5047446;28;20035;-78
2023/01/06 03:19:03;;;;;;;6.22;2.10;;;11.80;97.00;;;;;;5042137;28;20025;-78
2023/01/06 03:21:33;;;;;;;7.65;3.00;;;11.80;96.90;;;;;;5049042;28;20056;-80
2023/01/06 03:23:59;;;;;;;5.70;2.15;;;11.80;96.90;;;;;;5022532;28;20021;-78
2023/01/06 03:26:26;;;;;;;10.45;3.03;;;11.80;96.90;;;;;;5025245;28;20496;-78
2023/01/06 03:28:52;;;;;;;6.75;2.72;;;11.80;96.90;;;;;;5034115;28;20022;-77
2023/01/06 03:32:01;;;;;;;7.90;3.83;;;11.80;96.90;;;;;;5045077;28;20092;-78
2023/01/06 03:34:50;;;;;;;5.22;2.05;;;11.80;96.80;;;;;;5053209;28;20424;-78
2023/01/06 03:37:29;;;;;;;7.85;3.13;;;11.70;96.80;;;;;;5045036;28;20126;-80
2023/01/06 03:39:59;;;;;;;10.57;3.33;;;11.80;96.80;;;;;;5047230;28;20020;-77
2023/01/06 03:45:58;;;;;;;9.13;2.70;;;11.70;96.70;;;;;;5042545;28;20499;-78
2023/01/06 03:48:45;;;;;;;4.63;2.10;;;11.70;96.50;;;;;;5028683;28;20036;-78
2023/01/06 03:51:23;;;;;;;4.03;1.90;;;11.70;96.50;;;;;;5056942;28;20051;-77
2023/01/06 03:54:09;;;;;;;6.90;2.08;;;11.70;96.40;;;;;;5027815;28;20119;-78
2023/01/06 03:56:41;;;;;;;9.15;2.50;;;11.80;96.40;;;;;;5061477;28;20068;-78
2023/01/06 03:59:12;;;;;;;6.88;2.13;;;11.80;96.30;;;;;;5042675;28;20021;-78
2023/01/06 04:01:42;;;;;;;6.50;2.05;;;11.80;96.10;;;;;;5053174;28;20028;-77
2023/01/06 04:04:08;;;;;;;4.90;2.10;;;11.70;96.20;;;;;;5044517;28;20025;-78
2023/01/06 04:06:34;;;;;;;7.53;2.38;;;11.80;96.20;;;;;;5051345;28;20021;-79
2023/01/06 04:08:59;;;;;;;7.80;2.30;;;11.70;96.10;;;;;;5037286;28;20144;-78
2023/01/06 04:14:09;;;;;;;8.80;2.20;;;11.70;96.10;;;;;;5034363;28;20043;-78
2023/01/06 04:16:35;;;;;;;3.60;1.50;;;11.80;96.00;;;;;;5051533;28;20024;-79
2023/01/06 04:19:01;;;;;;;6.75;2.50;;;11.90;95.90;;;;;;5016452;28;20108;-78
2023/01/06 04:21:26;;;;;;;9.23;1.92;;;11.80;95.80;;;;;;5039648;28;20022;-80
2023/01/06 04:23:52;;;;;;;3.25;1.10;;;11.70;95.90;;;;;;5043492;28;20037;-78
2023/01/06 04:26:19;;;;;;;5.93;1.92;;;11.80;95.80;;;;;;5024848;28;20041;-79
2023/01/06 04:28:45;;;;;;;3.72;1.45;;;11.80;95.60;;;;;;5044391;28;20025;-79
2023/01/06 04:31:10;;;;;;;4.97;1.10;;;11.80;95.80;;;;;;5043424;28;20056;-78
2023/01/06 04:33:36;;;;;;;6.40;1.65;;;11.80;95.70;;;;;;5055256;28;20758;-77
2023/01/06 04:36:03;;;;;;;7.38;1.73;;;11.70;95.40;;;;;;5028202;28;20025;-78
2023/01/06 04:38:28;;;;;;;3.72;1.52;;;11.80;95.40;;;;;;5038995;28;20040;-79
2023/01/06 04:40:54;;;;;;;4.63;1.35;;;11.80;95.30;;;;;;5025524;28;20026;-78
2023/01/06 04:43:20;;;;;;;6.38;1.95;;;11.70;95.30;;;;;;5055179;28;20037;-78
2023/01/06 04:45:46;;;;;;;4.10;1.38;;;11.80;95.40;;;;;;5030478;28;20033;-79
2023/01/06 04:48:12;;;;;;;5.13;1.60;;;11.70;95.30;;;;;;5052584;28;20029;-78
2023/01/06 04:50:38;;;;;;;4.72;1.40;;;11.70;95.30;;;;;;5044582;28;20552;-78
2023/01/06 04:53:05;;;;;;;3.30;1.10;;;11.80;95.20;;;;;;5036873;28;20151;-79
2023/01/06 04:55:31;;;;;;;4.28;1.55;;;11.70;95.20;;;;;;5053191;28;20441;-77
2023/01/06 04:57:57;;;;;;;6.38;1.52;;;11.70;95.20;;;;;;5048656;28;20029;-78
2023/01/06 05:00:24;;;;;;;4.72;1.42;;;11.80;95.30;;;;;;5049212;28;20073;-79
2023/01/06 05:02:50;;;;;;;3.72;1.17;;;11.70;95.60;;;;;;5047160;28;20025;-79
2023/01/06 05:05:16;;;;;;;4.55;1.30;;;11.70;95.20;;;;;;5021103;28;20022;-78
2023/01/06 05:07:41;;;;;;;7.43;1.20;;;11.70;95.20;;;;;;5045339;28;20028;-78
2023/01/06 05:10:08;;;;;;;6.55;1.25;;;11.70;95.30;;;;;;5045331;28;20139;-79
2023/01/06 05:12:34;;;;;;;5.28;1.55;;;11.80;95.30;;;;;;5020406;28;20028;-79
2023/01/06 05:15:01;;;;;;;3.50;1.05;;;11.80;95.30;;;;;;5051348;28;20031;-79
2023/01/06 05:17:27;;;;;;;6.15;1.63;;;11.80;95.20;;;;;;5041929;28;20047;-77
2023/01/06 05:19:53;;;;;;;3.08;1.10;;;11.70;95.30;;;;;;5058491;28;20024;-80
2023/01/06 05:22:18;;;;;;;5.10;1.10;;;11.80;95.30;;;;;;5016094;28;20029;-79
2023/01/06 05:24:44;;;;;;;6.80;1.30;;;11.80;95.20;;;;;;5047581;28;20493;-79
2023/01/06 05:27:10;;;;;;;4.45;1.30;;;11.80;95.40;;;;;;5031630;28;20041;-79
2023/01/06 05:29:36;;;;;;;4.45;1.13;;;11.80;95.30;;;;;;5047111;28;20720;-79
2023/01/06 05:32:02;;;;;;;5.55;1.33;;;11.80;95.40;;;;;;5035888;28;20048;-77
2023/01/06 05:34:28;;;;;;;6.68;1.50;;;11.80;95.40;;;;;;5047530;28;20026;-79
2023/01/06 05:36:55;;;;;;;4.65;1.48;;;11.80;95.30;;;;;;5052666;28;20036;-79
2023/01/06 05:39:21;;;;;;;3.75;1.10;;;11.80;95.20;;;;;;5040883;28;20490;-79
2023/01/06 05:41:46;;;;;;;6.60;1.17;;;11.80;95.20;;;;;;5019019;28;20021;-79
2023/01/06 05:44:12;;;;;;;3.80;1.25;;;11.80;95.30;;;;;;5040325;28;20025;-79
2023/01/06 05:46:38;;;;;;;3.88;1.10;;;11.80;95.30;;;;;;5033806;28;20026;-77
2023/01/06 05:49:03;;;;;;;5.40;1.95;;;11.80;95.30;;;;;;5042932;28;20398;-78
2023/01/06 05:51:29;;;;;;;5.25;1.88;;;11.80;95.30;;;;;;5057995;28;20017;-78
2023/01/06 05:53:55;;;;;;;9.23;1.50;;;11.80;95.30;;;;;;5040809;28;20086;-80
2023/01/06 05:56:22;;;;;;;2.80;1.50;;;11.80;95.30;;;;;;5059366;28;20103;-78
2023/01/06 05:58:50;;;;;;;4.72;1.15;;;11.70;95.40;;;;;;5051043;28;20036;-78
2023/01/06 06:01:30;;;;;;;5.28;1.40;;;11.80;95.50;;;;;;5033107;28;20132;-78
2023/01/06 06:03:56;;;;;;;5.65;1.40;;;11.70;95.50;;;;;;5036524;28;20126;-79
2023/01/06 06:06:25;;;;;;;5.25;1.80;;;11.70;95.50;;;;;;5024920;28;20391;-80
2023/01/06 06:08:50;;;;;;;5.32;1.95;;;11.70;95.40;;;;;;5034954;28;20021;-79
2023/01/06 06:11:18;;;;;;;6.00;1.95;;;11.80;95.40;;;;;;5056398;28;20033;-78
2023/01/06 06:13:50;;;;;;;5.75;2.17;;;11.80;95.50;;;;;;5027049;28;20029;-80
2023/01/06 06:16:17;;;;;;;3.95;1.40;;;11.80;95.60;;;;;;5061703;28;20029;-78
2023/01/06 06:18:46;;;;;;;7.38;1.80;;;11.80;95.70;;;;;;5012173;28;20022;-79
2023/01/06 06:21:15;;;;;;;5.85;2.20;;;11.80;95.90;;;;;;5048229;28;20029;-78
2023/01/06 06:23:41;;;;;;;6.72;2.13;;;11.80;95.90;;;;;;5050244;28;20136;-79
2023/01/06 06:26:08;;;;;;;5.82;1.83;;;11.80;96.00;;;;;;5006030;28;20057;-78
2023/01/06 06:28:36;;;;;;;4.63;1.83;;;11.80;96.10;;;;;;5015120;28;20030;-79
2023/01/06 06:31:07;;;;;;;5.13;1.80;;;11.80;96.10;;;;;;5006376;28;20033;-79
2023/01/06 06:33:33;;;;;;;4.15;1.65;;;11.70;96.00;;;;;;4997182;28;20044;-79
2023/01/06 06:35:59;;;;;;;3.88;1.40;;;11.60;96.20;;;;;;5013549;28;20833;-79
2023/01/06 06:38:25;;;;;;;4.50;1.40;;;11.60;96.20;;;;;;4990460;28;20421;-80
2023/01/06 06:40:51;;;;;;;3.92;1.80;;;11.60;96.30;;;;;;5006536;28;20025;-80
2023/01/06 06:43:17;;;;;;;4.72;1.83;;;11.60;96.30;;;;;;5004863;28;20080;-80
2023/01/06 06:45:47;;;;;;;5.88;1.30;;;11.70;96.10;;;;;;5001794;28;20022;-80
2023/01/06 06:48:13;;;;;;;4.88;1.70;;;11.70;96.00;;;;;;4992180;28;20040;-79
2023/01/06 06:50:39;;;;;;;3.60;1.30;;;11.70;96.00;;;;;;4999129;28;20025;-78
2023/01/06 06:53:05;;;;;;;6.55;1.80;;;11.80;96.00;;;;;;5021416;28;20072;-80
2023/01/06 06:55:31;;;;;;;4.13;1.73;;;11.80;96.00;;;;;;5011248;28;20037;-75
2023/01/06 06:57:57;;;;;;;5.25;2.47;;;11.80;95.90;;;;;;5019940;28;20032;-77
2023/01/06 07:00:23;;;;;;;2.00;1.30;;;11.70;96.10;;;;;;5027090;28;20029;-78
2023/01/06 07:02:49;;;;;;;4.70;1.90;;;11.80;96.10;;;;;;5018381;28;20021;-77
2023/01/06 07:05:16;;;;;;;3.10;1.10;;;11.80;96.10;;;;;;5007243;28;20041;-77
2023/01/06 07:07:43;;;;;;;3.47;2.08;;;11.80;96.10;;;;;;5006664;28;20114;-78
2023/01/06 07:10:13;;;;;;;3.03;1.60;;;11.80;96.10;;;;;;4999349;28;20041;-77
2023/01/06 07:12:38;;;;;;;3.40;2.10;;;11.80;96.30;;;;;;5001619;28;20069;-76
2023/01/06 07:15:05;;;;;;;4.43;1.85;;;11.70;96.30;;;;;;4996485;28;20034;-77
2023/01/06 07:17:30;;;;;;;4.80;2.53;;;11.70;96.60;;;;;;4995770;28;20045;-76
2023/01/06 07:19:56;;;;;;;4.28;1.95;;;11.60;96.80;;;;;;4992145;28;20022;-76
2023/01/06 07:22:21;;;;;;;4.35;2.05;;;11.70;96.80;;;;;;4994174;28;20038;-77
2023/01/06 07:24:47;;;;;;;4.22;1.80;;;11.70;97.10;;;;;;5013602;28;20018;-77
2023/01/06 07:27:13;;;;;;;7.25;2.58;;;11.70;96.90;;;;;;5001093;28;20050;-77
2023/01/06 07:29:38;;;;;;;9.05;1.98;;;11.70;96.80;;;;;;4999233;28;20077;-77
2023/01/06 07:32:04;;;;;;;6.07;2.38;;;11.70;96.90;;;;;;5002417;28;20550;-79
2023/01/06 07:34:30;;;;;;;6.00;2.83;;;11.70;97.30;;;;;;4999841;28;20030;-77
2023/01/06 07:36:57;;;;;;;7.38;3.50;;;11.60;97.80;;;;;;5005758;28;20144;-76
2023/01/06 07:39:23;;;;;;;10.43;2.80;;;11.50;98.10;;;;;;5014454;28;20380;-77
2023/01/06 07:41:49;;;;;;;5.70;3.13;;;11.50;98.40;;;;;;4992228;28;20026;-76
2023/01/06 07:44:15;;;;;;;4.43;2.88;;;11.50;98.60;;;;;;5013616;28;20036;-78
2023/01/06 07:46:40;;;;;;;6.30;4.63;;;11.50;98.40;;;;;;5018497;28;20033;-77
2023/01/06 07:49:06;;;;;;;3.55;1.67;;;11.40;99.10;;;;;;5005805;28;20124;-79
2023/01/06 07:51:32;;;;;;;5.20;1.30;;;11.50;98.60;;;;;;4997914;28;20068;-79
2023/01/06 07:53:57;;;;;;;2.17;1.00;;;11.50;97.60;;;;;;5014538;28;20049;-79
2023/01/06 07:56:23;;;;;;;4.05;1.80;;;11.60;97.30;;;;;;5008883;28;20361;-80
2023/01/06 07:58:49;;;;;;;7.72;3.97;;;11.60;97.20;;;;;;5009696;28;20033;-79
2023/01/06 08:01:15;;;;;;;8.52;6.22;;;11.50;98.00;;;;;;5007048;28;20034;-78
2023/01/06 08:03:41;;;;;;;11.25;6.30;;;11.50;98.90;;;;;;5011673;28;20032;-77
2023/01/06 08:06:11;;;;;;;9.32;6.80;;;11.50;99.40;;;;;;5008811;28;20109;-77
2023/01/06 08:08:37;;;;;;;;;;;11.40;99.90;;;;;;5015535;28;20069;-78
2023/01/06 08:11:08;;;;;;;9.23;7.50;;;11.40;99.60;;;;;;5011873;28;19909;-77
2023/01/06 08:13:36;;;;;;;7.57;3.83;;;11.30;99.90;;;;;;5014777;28;20026;-79
2023/01/06 08:16:06;;;;;;;5.10;2.42;;;11.40;99.50;;;;;;5020560;28;20052;-79
2023/01/06 08:18:32;;;;;;;10.20;7.18;;;11.50;98.30;;;;;;5003184;28;20060;-77
2023/01/06 08:21:07;;;;;;;13.82;9.15;;;11.30;99.70;;;;;;5026486;28;20057;-78
2023/01/06 08:23:33;;;;;;;7.75;6.35;;;11.40;99.90;;;;;;5000904;28;20484;-78
2023/01/06 08:26:04;;;;;;;9.60;8.43;;;11.40;99.90;;;;;;5031180;28;20127;-77
2023/01/06 08:28:30;;;;;;;11.82;8.95;;;11.30;99.90;;;;;;5045564;28;20068;-75
2023/01/06 08:30:56;;;;;;;10.60;8.52;;;11.30;99.90;;;;;;5055824;28;20074;-76
2023/01/06 08:33:24;;;;;;;8.88;6.72;;;11.30;99.90;;;;;;5031787;28;20022;-78
2023/01/06 08:35:51;;;;;;;10.57;7.30;;;11.30;99.90;;;;;;5061560;28;20108;-78
2023/01/06 08:38:17;;;;;;;9.82;6.10;;;11.20;99.90;;;;;;5030693;28;20026;-78
2023/01/06 08:40:42;;;;;;;9.48;7.05;;;11.30;99.90;;;;;;5047609;28;20105;-78
2023/01/06 08:43:09;;;;;;;8.32;7.00;;;11.30;99.90;;;;;;5061714;28;20032;-78
2023/01/06 08:45:38;;;;;;;8.10;7.28;;;11.30;99.90;;;;;;5041680;28;20120;-77
2023/01/06 08:48:04;;;;;;;11.30;7.30;;;11.30;99.90;;;;;;5056737;28;20107;-79
2023/01/06 08:50:30;;;;;;;9.38;7.22;;;11.30;99.90;;;;;;5050025;28;20555;-78
2023/01/06 08:52:55;;;;;;;12.50;8.32;;;11.40;99.90;;;;;;5041831;28;20553;-77
2023/01/06 08:55:21;;;;;;;8.88;7.97;;;11.30;99.90;;;;;;5038808;28;20541;-78
2023/01/06 08:57:46;;;;;;;9.68;7.88;;;11.40;99.90;;;;;;5055258;28;20231;-76
2023/01/06 09:00:13;;;;;;;9.57;6.82;;;11.50;99.90;;;;;;5041451;28;20051;-77
2023/01/06 09:02:38;;;;;;;8.27;6.75;;;11.50;99.90;;;;;;5047067;28;20025;-76
2023/01/06 09:05:04;;;;;;;9.25;6.50;;;11.50;99.90;;;;;;5045771;28;20094;-76
2023/01/06 09:07:30;;;;;;;8.05;6.07;;;11.50;99.90;;;;;;5054455;28;20105;-76
2023/01/06 09:09:56;;;;;;;12.35;5.75;;;11.50;99.90;;;;;;5033459;28;20032;-76
2023/01/06 09:12:21;;;;;;;8.32;5.90;;;11.50;99.90;;;;;;5065736;28;20063;-77
2023/01/06 09:14:47;;;;;;;10.32;5.72;;;11.50;99.90;;;;;;5055613;28;20018;-77
2023/01/06 09:17:13;;;;;;;9.32;4.95;;;11.60;99.90;;;;;;5064011;28;20037;-77
2023/01/06 09:19:38;;;;;;;8.48;4.00;;;11.60;99.90;;;;;;5026330;28;20033;-77
2023/01/06 09:22:04;;;;;;;6.65;2.47;;;11.90;99.70;;;;;;5038678;28;20090;-77
2023/01/06 09:24:30;;;;;;;7.05;2.83;;;12.30;98.80;;;;;;5037622;28;20049;-77
2023/01/06 09:26:55;;;;;;;5.70;2.20;;;13.20;97.70;;;;;;5044054;28;20565;-77
2023/01/06 09:29:23;;;;;;;4.93;2.17;;;14.10;94.60;;;;;;5046481;28;20614;-76
2023/01/06 09:31:49;;;;;;;6.53;1.70;;;14.50;93.20;;;;;;5046061;28;20096;-77
2023/01/06 09:34:14;;;;;;;2.60;1.17;;;14.60;92.50;;;;;;5035682;28;20112;-77
2023/01/06 09:36:40;;;;;;;6.88;1.63;;;14.60;92.70;;;;;;5040252;28;20418;-77
2023/01/06 09:39:06;;;;;;;8.40;1.77;;;14.60;92.10;;;;;;5052049;28;20025;-77
2023/01/06 09:42:06;;;;;;;8.63;2.13;;;14.50;91.70;;;;;;5042781;28;20017;-78
2023/01/06 09:44:50;;;;;;;4.93;1.73;;;14.20;91.70;;;;;;5041644;28;20536;-78
2023/01/06 09:47:20;;;;;;;8.70;3.55;;;13.70;92.50;;;;;;5037123;28;20757;-79
2023/01/06 09:49:56;;;;;;;12.45;4.10;;;13.40;93.50;;;;;;5064027;28;20048;-77
2023/01/06 09:52:35;;;;;;;6.65;2.85;;;13.20;94.10;;;;;;5038743;28;20022;-77
2023/01/06 09:55:07;;;;;;;8.55;2.83;;;13.00;94.40;;;;;;5059393;28;20038;-77
2023/01/06 09:57:45;;;;;;;11.32;3.58;;;12.90;94.60;;;;;;5045539;28;20029;-78
2023/01/06 10:00:41;;;;;;;11.48;4.22;;;12.80;94.70;;;;;;5061053;28;20125;-77
2023/01/06 10:03:16;;;;;;;11.10;3.92;;;12.70;95.00;;;;;;5009792;28;20041;-78
2023/01/06 10:06:16;;;;;;;13.00;3.08;;;12.70;95.00;;;;;;5052080;28;20025;-76
2023/01/06 10:08:56;;;;;;;10.32;2.30;;;12.60;94.90;;;;;;5061914;28;20052;-78
2023/01/06 10:11:30;;;;;;;;;;;12.60;95.40;;;;;;5030764;28;20033;-77
2023/01/06 10:14:14;;;;;;;7.68;2.00;;;12.80;95.80;;;;;;5054259;28;19940;-78
2023/01/06 10:17:02;;;;;;;7.80;1.90;;;13.20;94.70;;;;;;5015013;28;20080;-77
2023/01/06 10:20:04;;;;;;;9.07;2.25;;;13.70;94.10;;;;;;5049599;28;20103;-78
2023/01/06 10:22:43;;;;;;;7.70;2.10;;;14.60;92.50;;;;;;5040398;28;20021;-77
2023/01/06 10:25:26;;;;;;;7.93;2.00;;;15.20;90.70;;;;;;5033330;28;20052;-78
2023/01/06 10:28:00;;;;;;;6.00;1.88;;;15.70;88.60;;;;;;5051048;28;20107;-78
2023/01/06 10:30:36;;;;;;;6.55;1.63;;;16.30;87.30;;;;;;5066466;28;20423;-78
2023/01/06 10:33:03;;;;;;;10.55;2.60;;;16.70;84.30;;;;;;5052366;28;20024;-78
2023/01/06 10:35:31;;;;;;;10.63;2.53;;;17.00;81.50;;;;;;5047909;28;20024;-79
2023/01/06 10:37:57;;;;;;;8.65;1.90;;;17.20;80.90;;;;;;5037138;28;20044;-77
2023/01/06 10:40:29;;;;;;;10.30;1.77;;;17.40;78.60;;;;;;5046102;28;20017;-77
2023/01/06 10:43:07;;;;;;;10.13;2.17;;;17.60;77.30;;;;;;5043764;28;20377;-77
2023/01/06 10:45:41;;;;;;;10.38;2.08;;;17.70;74.90;;;;;;5065469;28;20097;-78
2023/01/06 10:48:18;;;;;;;6.55;1.75;;;17.80;74.70;;;;;;5047202;28;20426;-77
2023/01/06 10:50:46;;;;;;;8.45;2.25;;;17.80;75.40;;;;;;5030211;28;20025;-76
2023/01/06 10:53:13;;;;;;;4.97;1.38;;;17.80;75.70;;;;;;5038331;28;20028;-77
2023/01/06 10:55:48;;;;;;;5.95;1.85;;;18.00;73.40;;;;;;5063738;28;20036;-78
2023/01/06 10:58:44;;;;;;;6.40;1.63;;;18.00;72.00;;;;;;5050797;28;20029;-77
2023/01/06 11:01:16;;;;;;;7.47;1.88;;;17.70;72.60;;;;;;5055701;28;20475;-77
2023/01/06 11:03:44;;;;;;;9.63;1.80;;;18.00;73.80;;;;;;5050078;28;20073;-78
2023/01/06 11:06:16;;;;;;;7.28;1.38;;;18.40;69.00;;;;;;5049922;28;20051;-77
2023/01/06 11:08:43;;;;;;;9.02;1.52;;;18.30;66.90;;;;;;5043338;28;20029;-77
2023/01/06 11:11:17;;;;;;;6.30;1.60;;;18.30;71.90;;;;;;5023384;28;20032;-78
2023/01/06 11:13:50;;;;;;;7.55;1.58;;;18.10;67.60;;;;;;5047821;28;20025;-78
2023/01/06 11:16:29;;;;;;;7.95;1.73;;;17.80;69.50;;;;;;5037157;28;20024;-78
2023/01/06 11:18:57;;;;;;;7.47;1.27;;;17.50;67.80;;;;;;5022546;28;21918;-78
2023/01/06 11:21:40;;;;;;;6.32;1.85;;;17.20;68.50;;;;;;5046738;28;20078;-78
2023/01/06 11:24:17;;;;;;;9.60;1.70;;;17.20;77.80;;;;;;5018431;28;20052;-77
2023/01/06 11:26:48;;;;;;;7.75;1.40;;;16.90;67.80;;;;;;5059312;28;20124;-77
2023/01/06 11:29:23;;;;;;;6.70;1.27;;;16.60;67.40;;;;;;5048514;28;20026;-77
2023/01/06 11:31:49;;;;;;;6.00;1.50;;;16.50;71.40;;;;;;5042937;28;20029;-77
2023/01/06 11:34:27;;;;;;;7.03;1.17;;;16.20;71.30;;;;;;5011946;28;20022;-76
2023/01/06 11:36:57;;;;;;;5.45;1.20;;;16.10;71.50;;;;;;5053238;28;20024;-77
2023/01/06 11:39:35;;;;;;;6.60;1.55;;;16.00;71.50;;;;;;5037026;28;20029;-77
2023/01/06 11:42:13;;;;;;;7.40;1.50;;;15.90;71.60;;;;;;5053221;28;20013;-78
2023/01/06 11:44:41;;;;;;;8.75;1.60;;;15.80;72.40;;;;;;5028941;28;20513;-78
2023/01/06 11:47:16;;;;;;;7.00;1.25;;;15.70;71.30;;;;;;5042154;28;20017;-77
2023/01/06 11:49:49;;;;;;;8.57;1.38;;;15.70;72.60;;;;;;5044256;28;20854;-77
2023/01/06 11:52:30;;;;;;;5.50;1.08;;;15.60;72.90;;;;;;5059737;28;20732;-78
2023/01/06 11:55:05;;;;;;;10.02;2.30;;;15.90;73.20;;;;;;5056516;28;20040;-77
2023/01/06 11:58:02;;;;;;;5.32;1.15;;;16.10;72.40;;;;;;5055329;28;20036;-77
2023/01/06 12:00:58;;;;;;;6.97;1.75;;;16.30;75.80;;;;;;5041350;28;20506;-77
2023/01/06 12:03:34;;;;;;;5.68;0.95;;;16.30;72.50;;;;;;5046044;28;20033;-77
2023/01/06 12:06:19;;;;;;;7.55;1.33;;;16.10;72.90;;;;;;5033588;28;20035;-78
2023/01/06 12:09:20;;;;;;;5.05;1.15;;;15.90;73.10;;;;;;5021590;28;20479;-78
2023/01/06 12:11:49;;;;;;;6.47;1.38;;;15.70;73.70;;;;;;5035076;28;20020;-78
2023/01/06 12:14:19;;;;;;;9.30;2.13;;;15.60;74.20;;;;;;5061458;28;20032;-78
2023/01/06 12:16:59;;;;;;;5.65;1.17;;;15.50;74.20;;;;;;5027832;28;20028;-78
2023/01/06 12:19:35;;;;;;;7.75;2.00;;;15.40;76.40;;;;;;5036729;28;20057;-77
2023/01/06 12:22:02;;;;;;;9.15;1.48;;;15.40;76.50;;;;;;5036931;28;20142;-78
2023/01/06 12:24:32;;;;;;;8.48;1.45;;;15.50;77.80;;;;;;5053838;28;20036;-78
2023/01/06 12:27:02;;;;;;;5.40;1.25;;;15.60;75.70;;;;;;5055861;28;20564;-78
2023/01/06 12:29:27;;;;;;;9.55;1.85;;;15.70;77.00;;;;;;5063254;28;20016;-78
2023/01/06 12:32:21;;;;;;;8.70;2.35;;;15.80;74.90;;;;;;5039849;28;20016;-78
2023/01/06 12:34:51;;;;;;;6.22;1.52;;;16.10;74.60;;;;;;5057229;28;20021;-78
2023/01/06 12:37:23;;;;;;;5.90;1.90;;;16.30;77.60;;;;;;5032924;28;20495;-78
2023/01/06 12:40:15;;;;;;;5.50;0.93;;;16.30;70.00;;;;;;5063619;28;20017;-79
2023/01/06 12:43:09;;;;;;;5.90;2.00;;;16.30;72.60;;;;;;5049476;28;20372;-78
2023/01/06 12:45:53;;;;;;;5.07;0.85;;;16.20;71.10;;;;;;5039127;28;20029;-76
2023/01/06 12:48:42;;;;;;;5.93;1.25;;;16.10;70.40;;;;;;5045810;28;20723;-76
2023/01/06 12:51:29;;;;;;;4.70;1.02;;;16.10;68.20;;;;;;5031102;28;20124;-77
2023/01/06 12:54:05;;;;;;;4.90;1.27;;;16.00;71.20;;;;;;5057576;28;20028;-76
2023/01/06 12:56:54;;;;;;;6.47;1.25;;;16.20;69.10;;;;;;5065542;28;20021;-77
2023/01/06 12:59:57;;;;;;;5.88;0.80;;;16.20;68.50;;;;;;5050016;28;20073;-78
2023/01/06 13:02:56;;;;;;;6.10;0.95;;;16.40;67.80;;;;;;5043619;28;20029;-77
2023/01/06 13:05:51;;;;;;;8.15;1.38;;;16.40;67.40;;;;;;5035626;28;20042;-78
2023/01/06 13:08:34;;;;;;;5.18;1.73;;;16.20;67.80;;;;;;5018147;28;20515;-77
2023/01/06 13:11:05;;;;;;;7.65;1.60;;;15.90;70.10;;;;;;5047164;28;20036;-77
2023/01/06 13:13:48;;;;;;;5.80;1.52;;;16.20;69.30;;;;;;5055415;28;20036;-77